createdAt,value
2019-03-27T00:00:03.862Z,7.14
2019-03-27T00:01:03.874Z,7.03
2019-03-27T00:02:03.911Z,7.11
2019-03-27T00:03:03.783Z,7.05
2019-03-27T00:04:03.803Z,7
2019-03-27T00:05:03.732Z,7.03
2019-03-27T00:06:03.707Z,7
2019-03-27T00:07:03.681Z,6.92
2019-03-27T00:08:03.679Z,6.93
2019-03-27T00:09:03.390Z,7.02
2019-03-27T00:10:03.613Z,6.89
2019-03-27T00:11:03.857Z,6.96
2019-03-27T00:12:03.546Z,7
2019-03-27T00:13:04.421Z,7.02
2019-03-27T00:14:03.861Z,6.93
2019-03-27T00:15:16.718Z,6.92
2019-03-27T00:16:03.447Z,6.93
2019-03-27T00:17:03.424Z,7.1
2019-03-27T00:18:03.401Z,6.95
2019-03-27T00:19:03.363Z,7.05
2019-03-27T00:20:03.337Z,6.92
2019-03-27T00:21:03.309Z,6.93
2019-03-27T00:22:03.287Z,6.96
2019-03-27T00:23:03.256Z,6.97
2019-03-27T00:24:03.233Z,7.02
2019-03-27T00:25:03.205Z,6.96
2019-03-27T00:26:03.172Z,6.89
2019-03-27T00:27:03.221Z,6.95
2019-03-27T00:28:03.117Z,6.89
2019-03-27T00:29:03.091Z,6.96
2019-03-27T00:30:03.066Z,6.95
2019-03-27T00:31:03.038Z,6.88
2019-03-27T00:32:03.012Z,7
2019-03-27T00:33:02.996Z,7.03
2019-03-27T00:34:02.956Z,7.02
2019-03-27T00:35:02.935Z,7.02
2019-03-27T00:36:02.902Z,7.02
2019-03-27T00:37:02.880Z,6.93
2019-03-27T00:38:02.854Z,6.95
2019-03-27T00:39:02.829Z,6.97
2019-03-27T00:40:02.820Z,6.92
2019-03-27T00:41:02.782Z,6.99
2019-03-27T00:42:02.744Z,6.96
2019-03-27T00:43:02.731Z,6.96
2019-03-27T00:44:02.696Z,6.96
2019-03-27T00:45:02.737Z,6.97
2019-03-27T00:46:02.648Z,6.93
2019-03-27T00:47:02.608Z,6.89
2019-03-27T00:48:02.587Z,6.88
2019-03-27T00:49:02.558Z,6.95
2019-03-27T00:50:02.726Z,7
2019-03-27T00:51:02.509Z,6.99
2019-03-27T00:52:02.476Z,6.93
2019-03-27T00:53:02.519Z,6.95
2019-03-27T00:54:02.445Z,6.92
2019-03-27T00:55:02.437Z,6.92
2019-03-27T00:56:02.375Z,6.92
2019-03-27T00:57:02.344Z,6.95
2019-03-27T00:58:02.311Z,6.96
2019-03-27T00:59:02.292Z,6.96
2019-03-27T01:00:02.262Z,6.93
2019-03-27T01:01:02.234Z,6.93
2019-03-27T01:02:02.214Z,6.79
2019-03-27T01:03:02.177Z,6.89
2019-03-27T01:04:02.162Z,6.87
2019-03-27T01:05:02.130Z,6.85
2019-03-27T01:06:02.102Z,6.82
2019-03-27T01:07:02.072Z,6.69
2019-03-27T01:08:02.045Z,6.7
2019-03-27T01:09:02.019Z,6.66
2019-03-27T01:10:01.994Z,6.77
2019-03-27T01:11:01.966Z,6.66
2019-03-27T01:12:01.979Z,6.75
2019-03-27T01:13:01.935Z,6.66
2019-03-27T01:14:01.880Z,6.67
2019-03-27T01:15:01.857Z,6.66
2019-03-27T01:16:01.863Z,6.64
2019-03-27T01:17:01.809Z,6.59
2019-03-27T01:18:01.778Z,6.52
2019-03-27T01:19:01.746Z,6.63
2019-03-27T01:20:01.723Z,6.59
2019-03-27T01:21:01.692Z,6.67
2019-03-27T01:22:01.671Z,6.62
2019-03-27T01:23:01.398Z,6.57
2019-03-27T01:24:01.612Z,6.56
2019-03-27T01:25:01.586Z,6.54
2019-03-27T01:26:01.560Z,6.52
2019-03-27T01:27:01.533Z,6.49
2019-03-27T01:28:01.509Z,6.51
2019-03-27T01:29:01.504Z,6.46
2019-03-27T01:30:01.456Z,6.51
2019-03-27T01:31:01.431Z,6.49
2019-03-27T01:32:01.406Z,6.42
2019-03-27T01:33:01.368Z,6.46
2019-03-27T01:34:01.338Z,6.48
2019-03-27T01:35:01.314Z,6.42
2019-03-27T01:36:01.288Z,6.39
2019-03-27T01:37:01.262Z,6.45
2019-03-27T01:38:00.992Z,6.42
2019-03-27T01:39:01.203Z,6.45
2019-03-27T01:40:01.179Z,6.45
2019-03-27T01:41:01.159Z,6.49
2019-03-27T01:42:01.121Z,6.49
2019-03-27T01:43:01.096Z,6.48
2019-03-27T01:44:01.069Z,6.46
2019-03-27T01:45:01.040Z,6.49
2019-03-27T01:46:01.020Z,6.46
2019-03-27T01:47:00.989Z,6.49
2019-03-27T01:48:00.958Z,6.41
2019-03-27T01:49:01.015Z,6.48
2019-03-27T01:50:00.900Z,6.56
2019-03-27T01:51:00.875Z,6.48
2019-03-27T01:52:00.850Z,6.42
2019-03-27T01:53:00.825Z,6.42
2019-03-27T01:54:00.873Z,6.42
2019-03-27T01:55:00.770Z,6.41
2019-03-27T01:56:00.739Z,6.44
2019-03-27T01:57:00.716Z,6.44
2019-03-27T01:58:00.690Z,6.45
2019-03-27T01:59:00.659Z,6.39
2019-03-27T02:00:00.634Z,6.42
2019-03-27T02:01:00.613Z,6.46
2019-03-27T02:02:00.574Z,6.42
2019-03-27T02:03:00.561Z,6.45
2019-03-27T02:04:00.523Z,6.42
2019-03-27T02:05:00.496Z,6.44
2019-03-27T02:06:00.466Z,6.44
2019-03-27T02:07:00.450Z,6.39
2019-03-27T02:08:00.416Z,6.45
2019-03-27T02:09:00.395Z,6.42
2019-03-27T02:10:00.453Z,6.42
2019-03-27T02:11:00.334Z,6.42
2019-03-27T02:12:00.310Z,6.46
2019-03-27T02:13:00.278Z,6.39
2019-03-27T02:14:00.251Z,6.44
2019-03-27T02:15:00.456Z,6.39
2019-03-27T02:16:11.346Z,6.39
2019-03-27T02:17:00.170Z,6.28
2019-03-27T02:18:00.148Z,6.31
2019-03-27T02:19:00.112Z,6.3
2019-03-27T02:20:00.099Z,6.31
2019-03-27T02:21:00.063Z,6.31
2019-03-27T02:22:00.046Z,6.28
2019-03-27T02:23:00.016Z,6.27
2019-03-27T02:23:59.978Z,6.2
2019-03-27T02:24:59.951Z,6.17
2019-03-27T02:25:59.926Z,6.22
2019-03-27T02:26:59.899Z,6.22
2019-03-27T02:27:59.872Z,6.22
2019-03-27T02:28:59.853Z,6.11
2019-03-27T02:29:59.835Z,6.2
2019-03-27T02:30:59.796Z,6.22
2019-03-27T02:31:59.766Z,6.16
2019-03-27T02:32:59.842Z,6.22
2019-03-27T02:33:59.713Z,6.16
2019-03-27T02:34:59.686Z,6.16
2019-03-27T02:35:59.664Z,6.14
2019-03-27T02:36:59.637Z,6.16
2019-03-27T02:37:59.602Z,6.24
2019-03-27T02:38:59.339Z,6.16
2019-03-27T02:39:59.552Z,6.16
2019-03-27T02:40:59.518Z,6.14
2019-03-27T02:41:59.503Z,6.16
2019-03-27T02:42:59.472Z,6.16
2019-03-27T02:43:59.436Z,6.16
2019-03-27T02:44:59.407Z,6.19
2019-03-27T02:45:59.390Z,6.22
2019-03-27T02:46:59.380Z,6.28
2019-03-27T02:47:59.334Z,6.26
2019-03-27T02:48:59.311Z,6.3
2019-03-27T02:49:59.284Z,6.28
2019-03-27T02:50:59.333Z,6.17
2019-03-27T02:51:59.225Z,6.17
2019-03-27T02:52:59.192Z,6.26
2019-03-27T02:53:59.177Z,6.17
2019-03-27T02:54:59.168Z,6.17
2019-03-27T02:55:59.123Z,6.19
2019-03-27T02:56:59.092Z,6.11
2019-03-27T02:57:59.062Z,6.14
2019-03-27T02:58:59.038Z,6.12
2019-03-27T02:59:59.008Z,6.16
2019-03-27T03:00:58.976Z,6.24
2019-03-27T03:01:58.950Z,6.12
2019-03-27T03:02:58.923Z,6.16
2019-03-27T03:03:58.894Z,6.27
2019-03-27T03:04:58.865Z,6.22
2019-03-27T03:05:58.832Z,6.14
2019-03-27T03:06:58.906Z,6.27
2019-03-27T03:07:58.798Z,6.12
2019-03-27T03:08:58.765Z,6.14
2019-03-27T03:09:58.729Z,6.14
2019-03-27T03:10:58.702Z,6.16
2019-03-27T03:11:58.676Z,6.09
2019-03-27T03:12:58.651Z,6.11
2019-03-27T03:13:58.641Z,6.09
2019-03-27T03:14:58.602Z,6.07
2019-03-27T03:15:58.569Z,6.01
2019-03-27T03:16:58.539Z,6.09
2019-03-27T03:17:58.515Z,6.07
2019-03-27T03:18:58.482Z,6.12
2019-03-27T03:19:58.459Z,6.12
2019-03-27T03:20:58.433Z,6.14
2019-03-27T03:21:58.509Z,6.05
2019-03-27T03:22:58.458Z,6.05
2019-03-27T03:23:58.348Z,6.09
2019-03-27T03:24:58.324Z,6.07
2019-03-27T03:25:58.360Z,6.12
2019-03-27T03:26:58.270Z,6.17
2019-03-27T03:27:58.238Z,6.05
2019-03-27T03:28:58.209Z,6.08
2019-03-27T03:29:58.183Z,5.97
2019-03-27T03:30:58.248Z,6.08
2019-03-27T03:31:58.144Z,6.05
2019-03-27T03:32:58.120Z,6.08
2019-03-27T03:33:58.353Z,6.02
2019-03-27T03:34:58.096Z,6.04
2019-03-27T03:35:58.017Z,6.05
2019-03-27T03:36:58.001Z,6.01
2019-03-27T03:37:57.965Z,5.97
2019-03-27T03:38:57.952Z,6.05
2019-03-27T03:39:57.911Z,6.02
2019-03-27T03:40:57.885Z,5.98
2019-03-27T03:41:57.871Z,5.99
2019-03-27T03:42:57.825Z,5.98
2019-03-27T03:43:57.571Z,5.93
2019-03-27T03:44:57.775Z,5.97
2019-03-27T03:45:57.745Z,5.97
2019-03-27T03:47:05.071Z,5.97
2019-03-27T03:47:57.711Z,5.97
2019-03-27T03:48:57.672Z,5.97
2019-03-27T03:49:57.630Z,5.97
2019-03-27T03:50:57.609Z,5.94
2019-03-27T03:51:57.599Z,5.91
2019-03-27T03:52:57.576Z,5.99
2019-03-27T03:53:57.543Z,5.86
2019-03-27T03:54:57.515Z,5.93
2019-03-27T03:55:57.480Z,5.87
2019-03-27T03:56:57.441Z,5.9
2019-03-27T03:57:57.430Z,5.91
2019-03-27T03:58:57.404Z,5.89
2019-03-27T03:59:57.389Z,5.87
2019-03-27T04:00:57.348Z,5.87
2019-03-27T04:01:57.188Z,5.89
2019-03-27T04:02:57.293Z,5.97
2019-03-27T04:03:57.286Z,5.89
2019-03-27T04:04:57.242Z,5.91
2019-03-27T04:05:57.199Z,5.83
2019-03-27T04:06:57.206Z,5.9
2019-03-27T04:07:57.156Z,5.91
2019-03-27T04:08:57.117Z,5.87
2019-03-27T04:09:56.922Z,5.91
2019-03-27T04:10:57.070Z,5.91
2019-03-27T04:11:57.090Z,5.91
2019-03-27T04:12:56.780Z,5.86
2019-03-27T04:13:57.066Z,5.89
2019-03-27T04:14:56.961Z,5.91
2019-03-27T04:15:56.931Z,5.86
2019-03-27T04:16:56.904Z,5.93
2019-03-27T04:17:56.873Z,5.83
2019-03-27T04:18:56.881Z,5.84
2019-03-27T04:19:56.819Z,5.93
2019-03-27T04:20:56.799Z,5.82
2019-03-27T04:21:56.533Z,5.84
2019-03-27T04:22:56.734Z,5.87
2019-03-27T04:23:56.733Z,5.93
2019-03-27T04:24:56.681Z,5.9
2019-03-27T04:26:14.321Z,5.86
2019-03-27T04:26:56.804Z,5.89
2019-03-27T04:27:56.593Z,5.83
2019-03-27T04:28:56.574Z,5.76
2019-03-27T04:29:56.549Z,5.93
2019-03-27T04:30:56.510Z,5.86
2019-03-27T04:31:56.503Z,5.89
2019-03-27T04:32:56.480Z,5.89
2019-03-27T04:33:56.442Z,5.84
2019-03-27T04:34:56.411Z,5.87
2019-03-27T04:35:56.385Z,5.84
2019-03-27T04:36:56.503Z,5.84
2019-03-27T04:37:56.341Z,5.73
2019-03-27T04:38:56.297Z,5.73
2019-03-27T04:39:56.268Z,5.76
2019-03-27T04:40:56.244Z,5.76
2019-03-27T04:41:56.212Z,5.76
2019-03-27T04:42:56.187Z,5.86
2019-03-27T04:43:56.157Z,5.76
2019-03-27T04:44:55.898Z,5.8
2019-03-27T04:45:56.105Z,5.83
2019-03-27T04:46:56.093Z,5.8
2019-03-27T04:47:56.056Z,5.75
2019-03-27T04:48:56.110Z,5.76
2019-03-27T04:49:55.991Z,5.79
2019-03-27T04:50:55.963Z,5.83
2019-03-27T04:51:55.933Z,5.75
2019-03-27T04:52:55.923Z,5.83
2019-03-27T04:53:55.885Z,5.76
2019-03-27T04:54:55.855Z,5.75
2019-03-27T04:55:55.831Z,5.82
2019-03-27T04:56:55.801Z,5.76
2019-03-27T04:57:55.774Z,5.82
2019-03-27T04:58:55.746Z,5.8
2019-03-27T04:59:55.741Z,5.72
2019-03-27T05:00:55.695Z,5.84
2019-03-27T05:01:55.667Z,5.87
2019-03-27T05:02:55.635Z,5.86
2019-03-27T05:03:55.616Z,5.82
2019-03-27T05:04:55.584Z,5.82
2019-03-27T05:05:55.557Z,5.8
2019-03-27T05:06:55.527Z,5.86
2019-03-27T05:07:55.501Z,5.86
2019-03-27T05:08:55.472Z,5.9
2019-03-27T05:09:55.857Z,5.93
2019-03-27T05:10:55.414Z,5.9
2019-03-27T05:11:55.405Z,5.93
2019-03-27T05:12:55.361Z,5.93
2019-03-27T05:13:55.339Z,6.05
2019-03-27T05:14:55.304Z,6.08
2019-03-27T05:15:55.285Z,5.98
2019-03-27T05:16:55.247Z,6.07
2019-03-27T05:17:55.221Z,6.07
2019-03-27T05:18:55.191Z,6.07
2019-03-27T05:19:55.163Z,6.04
2019-03-27T05:20:55.146Z,6.12
2019-03-27T05:21:55.112Z,6.14
2019-03-27T05:22:55.089Z,6.17
2019-03-27T05:23:55.061Z,6.22
2019-03-27T05:24:55.031Z,6.14
2019-03-27T05:25:55.013Z,6.2
2019-03-27T05:26:55.236Z,6.17
2019-03-27T05:27:54.971Z,6.14
2019-03-27T05:28:54.922Z,6.16
2019-03-27T05:29:54.896Z,6.17
2019-03-27T05:30:54.870Z,6.12
2019-03-27T05:31:54.845Z,6.07
2019-03-27T05:32:54.810Z,6.17
2019-03-27T05:33:54.796Z,6.14
2019-03-27T05:34:54.761Z,6.22
2019-03-27T05:35:54.737Z,6.12
2019-03-27T05:36:54.709Z,6.12
2019-03-27T05:37:54.677Z,6.09
2019-03-27T05:38:54.658Z,6.07
2019-03-27T05:39:54.387Z,6.07
2019-03-27T05:40:54.597Z,6.07
2019-03-27T05:41:54.573Z,6.16
2019-03-27T05:43:05.335Z,6.11
2019-03-27T05:43:54.277Z,6.14
2019-03-27T05:44:54.497Z,6.08
2019-03-27T05:45:54.467Z,6.12
2019-03-27T05:46:54.436Z,6.11
2019-03-27T05:48:04.132Z,6.05
2019-03-27T05:48:54.385Z,6.09
2019-03-27T05:49:54.364Z,6.05
2019-03-27T05:50:54.332Z,6.09
2019-03-27T05:51:54.302Z,6.08
2019-03-27T05:52:54.274Z,6.12
2019-03-27T05:53:54.246Z,6.09
2019-03-27T05:54:54.222Z,6.11
2019-03-27T05:55:54.191Z,6.09
2019-03-27T05:56:54.166Z,6.16
2019-03-27T05:57:54.143Z,6.16
2019-03-27T05:58:54.114Z,6.14
2019-03-27T05:59:54.084Z,6.12
2019-03-27T06:00:54.113Z,6.14
2019-03-27T06:01:54.029Z,6.16
2019-03-27T06:02:54.007Z,6.11
2019-03-27T06:03:53.985Z,6.12
2019-03-27T06:04:53.960Z,6.14
2019-03-27T06:05:53.921Z,6.12
2019-03-27T06:06:53.899Z,6.04
2019-03-27T06:07:53.865Z,6.09
2019-03-27T06:08:53.840Z,6.07
2019-03-27T06:09:53.590Z,6.11
2019-03-27T06:10:53.787Z,6.02
2019-03-27T06:11:53.758Z,6.14
2019-03-27T06:12:53.741Z,6.04
2019-03-27T06:13:54.394Z,6.07
2019-03-27T06:14:53.673Z,6.19
2019-03-27T06:15:53.648Z,6.09
2019-03-27T06:16:53.630Z,6.16
2019-03-27T06:17:53.603Z,6.08
2019-03-27T06:18:53.617Z,6.14
2019-03-27T06:19:53.546Z,6.09
2019-03-27T06:20:53.517Z,6.09
2019-03-27T06:21:53.564Z,6.11
2019-03-27T06:22:53.463Z,6.2
2019-03-27T06:23:53.431Z,6.16
2019-03-27T06:24:53.408Z,6.12
2019-03-27T06:25:53.381Z,6.17
2019-03-27T06:26:53.348Z,6.14
2019-03-27T06:27:53.323Z,6.16
2019-03-27T06:28:53.293Z,6.12
2019-03-27T06:29:53.291Z,6.16
2019-03-27T06:30:53.245Z,6.19
2019-03-27T06:31:53.232Z,6.22
2019-03-27T06:32:53.190Z,6.14
2019-03-27T06:33:53.167Z,6.16
2019-03-27T06:34:53.148Z,6.19
2019-03-27T06:35:53.118Z,6.17
2019-03-27T06:36:53.083Z,6.11
2019-03-27T06:37:53.056Z,6.12
2019-03-27T06:38:53.084Z,6.16
2019-03-27T06:39:53.170Z,6.17
2019-03-27T06:40:54.251Z,6.16
2019-03-27T06:41:53.652Z,6.24
2019-03-27T06:42:52.927Z,6.16
2019-03-27T06:43:52.895Z,6.31
2019-03-27T06:44:52.868Z,6.33
2019-03-27T06:45:52.844Z,6.45
2019-03-27T06:46:52.816Z,6.46
2019-03-27T06:47:52.786Z,6.35
2019-03-27T06:48:52.766Z,6.46
2019-03-27T06:49:52.737Z,6.48
2019-03-27T06:50:52.707Z,6.46
2019-03-27T06:51:52.679Z,6.51
2019-03-27T06:52:52.821Z,6.51
2019-03-27T06:53:52.623Z,6.56
2019-03-27T06:54:52.600Z,6.51
2019-03-27T06:55:52.568Z,6.57
2019-03-27T06:56:52.560Z,6.57
2019-03-27T06:57:52.520Z,6.64
2019-03-27T06:58:59.265Z,6.69
2019-03-27T06:59:52.471Z,6.7
2019-03-27T07:00:52.454Z,6.72
2019-03-27T07:01:52.416Z,6.78
2019-03-27T07:02:52.396Z,6.75
2019-03-27T07:03:53.290Z,6.79
2019-03-27T07:04:52.349Z,6.79
2019-03-27T07:05:52.309Z,6.82
2019-03-27T07:06:52.304Z,6.78
2019-03-27T07:07:52.263Z,6.84
2019-03-27T07:08:52.227Z,6.78
2019-03-27T07:09:53.360Z,6.81
2019-03-27T07:10:52.182Z,6.78
2019-03-27T07:11:52.446Z,6.87
2019-03-27T07:12:52.129Z,6.93
2019-03-27T07:13:52.350Z,6.82
2019-03-27T07:14:52.076Z,6.88
2019-03-27T07:15:52.158Z,6.85
2019-03-27T07:16:52.029Z,6.92
2019-03-27T07:17:51.998Z,6.96
2019-03-27T07:18:52.144Z,6.88
2019-03-27T07:19:51.954Z,6.84
2019-03-27T07:20:51.931Z,6.95
2019-03-27T07:21:51.907Z,6.93
2019-03-27T07:22:51.877Z,6.97
2019-03-27T07:23:51.848Z,6.93
2019-03-27T07:24:51.817Z,7.06
2019-03-27T07:25:51.794Z,6.97
2019-03-27T07:26:51.660Z,6.88
2019-03-27T07:27:51.745Z,6.89
2019-03-27T07:28:51.486Z,7.03
2019-03-27T07:29:51.705Z,7.02
2019-03-27T07:30:51.668Z,7
2019-03-27T07:31:51.645Z,7.05
2019-03-27T07:32:51.635Z,7.1
2019-03-27T07:33:52.273Z,7.07
2019-03-27T07:34:52.437Z,7.24
2019-03-27T07:35:51.542Z,7.35
2019-03-27T07:36:51.512Z,7.4
2019-03-27T07:37:51.488Z,7.32
2019-03-27T07:38:51.483Z,7.35
2019-03-27T07:39:51.435Z,7.29
2019-03-27T07:40:51.422Z,7.31
2019-03-27T07:41:51.383Z,7.23
2019-03-27T07:42:51.362Z,7.23
2019-03-27T07:43:51.336Z,7.25
2019-03-27T07:44:51.325Z,7.28
2019-03-27T07:45:51.287Z,7.32
2019-03-27T07:46:51.258Z,7.28
2019-03-27T07:47:52.874Z,7.24
2019-03-27T07:48:59.825Z,7.29
2019-03-27T07:49:51.177Z,7.24
2019-03-27T07:50:51.161Z,7.28
2019-03-27T07:51:51.126Z,7.28
2019-03-27T07:52:51.106Z,7.31
2019-03-27T07:53:51.094Z,7.38
2019-03-27T07:54:51.056Z,7.38
2019-03-27T07:55:51.032Z,7.4
2019-03-27T07:56:51.005Z,7.57
2019-03-27T07:57:50.986Z,7.7
2019-03-27T07:58:50.957Z,7.72
2019-03-27T07:59:50.949Z,7.82
2019-03-27T08:00:51.031Z,7.9
2019-03-27T08:01:50.884Z,8
2019-03-27T08:02:50.863Z,7.95
2019-03-27T08:03:50.835Z,7.9
2019-03-27T08:04:50.812Z,8.01
2019-03-27T08:05:50.787Z,8
2019-03-27T08:06:50.834Z,7.95
2019-03-27T08:07:50.741Z,7.83
2019-03-27T08:08:50.709Z,7.88
2019-03-27T08:09:50.688Z,7.88
2019-03-27T08:10:50.662Z,7.94
2019-03-27T08:11:50.658Z,7.95
2019-03-27T08:12:50.626Z,7.95
2019-03-27T08:13:50.595Z,7.97
2019-03-27T08:14:50.565Z,7.98
2019-03-27T08:15:50.543Z,8.1
2019-03-27T08:16:50.285Z,7.95
2019-03-27T08:17:50.509Z,7.93
2019-03-27T08:18:50.477Z,7.98
2019-03-27T08:19:50.494Z,7.98
2019-03-27T08:20:50.419Z,8
2019-03-27T08:21:50.417Z,8.05
2019-03-27T08:22:50.376Z,8.2
2019-03-27T08:23:51.289Z,8.24
2019-03-27T08:24:50.328Z,8.45
2019-03-27T08:25:50.299Z,8.56
2019-03-27T08:26:50.277Z,8.74
2019-03-27T08:27:50.326Z,8.7
2019-03-27T08:28:50.227Z,8.79
2019-03-27T08:29:50.205Z,8.73
2019-03-27T08:30:50.187Z,8.71
2019-03-27T08:31:50.156Z,8.71
2019-03-27T08:32:50.135Z,8.61
2019-03-27T08:33:50.190Z,8.66
2019-03-27T08:34:50.087Z,8.58
2019-03-27T08:35:50.067Z,8.41
2019-03-27T08:36:50.047Z,8.37
2019-03-27T08:37:50.015Z,8.24
2019-03-27T08:38:49.990Z,8.23
2019-03-27T08:39:49.973Z,8.26
2019-03-27T08:40:49.983Z,8.2
2019-03-27T08:41:49.915Z,8.15
2019-03-27T08:42:49.895Z,8.24
2019-03-27T08:43:49.869Z,8.08
2019-03-27T08:44:49.848Z,8.19
2019-03-27T08:45:49.821Z,8.19
2019-03-27T08:46:49.799Z,8.23
2019-03-27T08:47:49.790Z,8.24
2019-03-27T08:48:49.757Z,8.23
2019-03-27T08:49:49.724Z,8.24
2019-03-27T08:50:49.695Z,8.42
2019-03-27T08:51:49.670Z,8.41
2019-03-27T08:52:49.653Z,8.45
2019-03-27T08:53:49.624Z,8.48
2019-03-27T08:54:49.605Z,8.46
2019-03-27T08:55:49.577Z,8.51
2019-03-27T08:56:49.554Z,8.42
2019-03-27T08:57:49.500Z,8.38
2019-03-27T08:58:49.509Z,8.42
2019-03-27T08:59:49.529Z,8.38
2019-03-27T09:00:49.464Z,8.33
2019-03-27T09:01:49.442Z,8.33
2019-03-27T09:02:49.408Z,8.37
2019-03-27T09:03:49.384Z,8.34
2019-03-27T09:04:49.448Z,8.34
2019-03-27T09:05:49.341Z,8.44
2019-03-27T09:06:49.309Z,8.45
2019-03-27T09:07:49.282Z,8.34
2019-03-27T09:08:49.259Z,8.38
2019-03-27T09:09:49.266Z,8.37
2019-03-27T09:10:49.208Z,8.38
2019-03-27T09:11:49.190Z,8.41
2019-03-27T09:12:49.020Z,8.41
2019-03-27T09:13:49.141Z,8.31
2019-03-27T09:14:49.112Z,8.34
2019-03-27T09:15:49.089Z,8.46
2019-03-27T09:16:49.070Z,8.46
2019-03-27T09:17:48.799Z,8.63
2019-03-27T09:18:48.778Z,8.71
2019-03-27T09:19:48.751Z,8.71
2019-03-27T09:20:49.061Z,8.78
2019-03-27T09:21:48.940Z,8.89
2019-03-27T09:22:48.916Z,8.99
2019-03-27T09:23:50.693Z,9.1
2019-03-27T09:24:48.941Z,9.14
2019-03-27T09:25:48.842Z,9.11
2019-03-27T09:26:48.823Z,9.18
2019-03-27T09:27:48.565Z,9.31
2019-03-27T09:28:48.772Z,9.26
2019-03-27T09:29:48.866Z,9.23
2019-03-27T09:30:48.482Z,9.22
2019-03-27T09:31:50.177Z,9.19
2019-03-27T09:32:48.673Z,9.22
2019-03-27T09:33:48.653Z,9.18
2019-03-27T09:34:48.711Z,9.11
2019-03-27T09:35:48.734Z,9.14
2019-03-27T09:36:48.580Z,9.16
2019-03-27T09:37:48.551Z,9.08
2019-03-27T09:38:48.527Z,9.02
2019-03-27T09:39:48.512Z,9.04
2019-03-27T09:40:48.480Z,9.06
2019-03-27T09:41:48.454Z,9.11
2019-03-27T09:42:48.432Z,9.11
2019-03-27T09:43:48.415Z,9.16
2019-03-27T09:44:48.383Z,9.29
2019-03-27T09:45:48.377Z,9.48
2019-03-27T09:46:48.338Z,9.46
2019-03-27T09:47:48.311Z,9.55
2019-03-27T09:48:48.281Z,9.62
2019-03-27T09:49:54.167Z,9.55
2019-03-27T09:50:48.239Z,9.58
2019-03-27T09:51:48.214Z,9.65
2019-03-27T09:52:48.189Z,9.58
2019-03-27T09:53:48.164Z,9.59
2019-03-27T09:54:48.151Z,9.48
2019-03-27T09:55:47.888Z,9.5
2019-03-27T09:56:47.878Z,9.5
2019-03-27T09:57:48.250Z,9.47
2019-03-27T09:58:47.592Z,9.55
2019-03-27T09:59:48.029Z,9.54
2019-03-27T10:00:48.086Z,9.59
2019-03-27T10:01:48.033Z,9.62
2019-03-27T10:02:47.950Z,9.83
2019-03-27T10:03:47.925Z,9.89
2019-03-27T10:04:47.911Z,10.09
2019-03-27T10:05:47.876Z,10.25
2019-03-27T10:06:47.864Z,10.23
2019-03-27T10:07:48.195Z,10.28
2019-03-27T10:08:47.608Z,10.31
2019-03-27T10:09:50.286Z,10.31
2019-03-27T10:10:47.526Z,10.33
2019-03-27T10:11:48.424Z,10.38
2019-03-27T10:12:47.726Z,10.38
2019-03-27T10:13:48.022Z,10.41
2019-03-27T10:14:50.034Z,10.41
2019-03-27T10:15:47.445Z,10.33
2019-03-27T10:16:47.696Z,10.28
2019-03-27T10:17:47.655Z,10.31
2019-03-27T10:18:49.959Z,10.19
2019-03-27T10:19:47.563Z,10.15
2019-03-27T10:20:47.530Z,10.12
2019-03-27T10:21:47.517Z,10.01
2019-03-27T10:22:47.891Z,9.99
2019-03-27T10:23:48.920Z,10.01
2019-03-27T10:24:47.451Z,10.02
2019-03-27T10:25:47.422Z,9.99
2019-03-27T10:26:47.679Z,9.99
2019-03-27T10:27:47.377Z,10.1
2019-03-27T10:28:47.124Z,10.22
2019-03-27T10:29:47.331Z,10.15
2019-03-27T10:30:47.299Z,10.22
2019-03-27T10:31:47.043Z,10.31
2019-03-27T10:32:47.309Z,10.26
2019-03-27T10:33:47.354Z,10.31
2019-03-27T10:34:47.218Z,10.22
2019-03-27T10:35:47.190Z,10.25
2019-03-27T10:36:47.170Z,10.34
2019-03-27T10:37:47.148Z,10.53
2019-03-27T10:38:47.120Z,10.56
2019-03-27T10:39:47.096Z,10.63
2019-03-27T10:40:47.081Z,10.69
2019-03-27T10:41:47.076Z,10.68
2019-03-27T10:42:47.041Z,10.76
2019-03-27T10:43:47.009Z,10.9
2019-03-27T10:44:46.989Z,10.93
2019-03-27T10:45:46.959Z,11.08
2019-03-27T10:46:47.023Z,11.14
2019-03-27T10:47:46.922Z,11.04
2019-03-27T10:48:57.163Z,11.04
2019-03-27T10:49:46.881Z,10.94
2019-03-27T10:50:46.855Z,10.93
2019-03-27T10:51:46.833Z,10.96
2019-03-27T10:52:46.826Z,10.9
2019-03-27T10:53:46.788Z,10.81
2019-03-27T10:54:46.530Z,10.82
2019-03-27T10:55:46.745Z,10.74
2019-03-27T10:56:46.730Z,10.69
2019-03-27T10:57:46.702Z,10.76
2019-03-27T10:58:46.688Z,10.71
2019-03-27T10:59:46.665Z,10.63
2019-03-27T11:00:46.636Z,10.64
2019-03-27T11:01:46.611Z,10.59
2019-03-27T11:02:46.592Z,10.71
2019-03-27T11:03:46.572Z,10.71
2019-03-27T11:04:46.308Z,10.59
2019-03-27T11:05:46.526Z,10.63
2019-03-27T11:06:46.522Z,10.56
2019-03-27T11:07:46.502Z,10.64
2019-03-27T11:08:46.455Z,10.72
2019-03-27T11:09:46.199Z,10.78
2019-03-27T11:10:46.413Z,10.94
2019-03-27T11:11:46.390Z,11.11
2019-03-27T11:12:46.367Z,11.22
2019-03-27T11:13:46.539Z,11.33
2019-03-27T11:14:46.552Z,11.47
2019-03-27T11:15:46.061Z,11.57
2019-03-27T11:16:46.298Z,11.88
2019-03-27T11:17:46.262Z,12.03
2019-03-27T11:18:46.239Z,12.15
2019-03-27T11:19:46.220Z,12.35
2019-03-27T11:20:46.199Z,12.57
2019-03-27T11:21:46.179Z,12.68
2019-03-27T11:22:46.157Z,12.94
2019-03-27T11:23:46.141Z,13.2
2019-03-27T11:24:46.121Z,13.38
2019-03-27T11:25:46.093Z,13.5
2019-03-27T11:26:46.083Z,13.52
2019-03-27T11:27:46.090Z,13.52
2019-03-27T11:28:46.039Z,13.53
2019-03-27T11:29:46.020Z,13.46
2019-03-27T11:30:48.313Z,13.54
2019-03-27T11:32:57.927Z,13.44
2019-03-27T11:33:57.915Z,13.5
2019-03-27T11:34:57.878Z,13.53
2019-03-27T11:35:57.874Z,13.67
2019-03-27T11:36:57.850Z,13.59
2019-03-27T11:37:57.826Z,13.7
2019-03-27T11:38:57.810Z,13.75
2019-03-27T11:39:57.787Z,13.83
2019-03-27T11:40:57.773Z,13.93
2019-03-27T11:42:00.591Z,13.93
2019-03-27T11:42:57.744Z,13.96
2019-03-27T11:43:59.940Z,13.96
2019-03-27T11:44:57.693Z,13.92
2019-03-27T11:45:57.686Z,13.81
2019-03-27T11:46:57.664Z,13.7
2019-03-27T11:47:57.648Z,13.54
2019-03-27T11:48:57.626Z,13.31
2019-03-27T11:49:57.607Z,13.05
2019-03-27T11:50:57.588Z,12.93
2019-03-27T11:51:57.573Z,12.76
2019-03-27T11:52:57.636Z,12.61
2019-03-27T11:53:57.539Z,12.53
2019-03-27T11:54:57.522Z,12.47
2019-03-27T11:55:57.505Z,12.42
2019-03-27T11:56:57.492Z,12.43
2019-03-27T11:57:57.468Z,12.39
2019-03-27T11:58:57.452Z,12.4
2019-03-27T11:59:59.000Z,12.4
2019-03-27T12:00:59.480Z,12.35
2019-03-27T12:01:57.396Z,12.42
2019-03-27T12:02:57.371Z,12.36
2019-03-27T12:03:57.354Z,12.36
2019-03-27T12:04:57.336Z,12.31
2019-03-27T12:05:57.084Z,12.25
2019-03-27T12:06:57.356Z,12.27
2019-03-27T12:07:57.283Z,12.28
2019-03-27T12:08:57.263Z,12.31
2019-03-27T12:09:57.243Z,12.42
2019-03-27T12:10:57.217Z,12.4
2019-03-27T12:11:57.222Z,12.46
2019-03-27T12:12:57.656Z,12.39
2019-03-27T12:13:57.177Z,12.47
2019-03-27T12:14:57.142Z,12.47
2019-03-27T12:15:57.131Z,12.54
2019-03-27T12:16:57.103Z,12.76
2019-03-27T12:17:57.081Z,12.83
2019-03-27T12:18:57.068Z,13.11
2019-03-27T12:19:57.047Z,13.18
2019-03-27T12:21:04.216Z,13.44
2019-03-27T12:21:59.626Z,13.52
2019-03-27T12:23:02.530Z,13.57
2019-03-27T12:23:56.968Z,13.62
2019-03-27T12:24:56.959Z,13.75
2019-03-27T12:25:59.985Z,13.85
2019-03-27T12:26:56.917Z,13.87
2019-03-27T12:27:56.899Z,13.86
2019-03-27T12:28:56.882Z,13.72
2019-03-27T12:29:56.864Z,13.74
2019-03-27T12:30:56.668Z,13.5
2019-03-27T12:31:56.833Z,13.41
2019-03-27T12:32:56.649Z,13.22
2019-03-27T12:33:56.796Z,13.03
2019-03-27T12:34:56.775Z,12.82
2019-03-27T12:35:56.518Z,12.85
2019-03-27T12:36:56.736Z,12.93
2019-03-27T12:37:56.725Z,12.95
2019-03-27T12:38:56.696Z,13.04
2019-03-27T12:39:56.674Z,13
2019-03-27T12:40:56.420Z,13.22
2019-03-27T12:41:56.651Z,13.28
2019-03-27T12:42:56.623Z,13.22
2019-03-27T12:43:56.617Z,13.19
2019-03-27T12:44:56.584Z,13.2
2019-03-27T12:45:56.338Z,13.2
2019-03-27T12:46:56.843Z,13.2
2019-03-27T12:47:56.535Z,13.18
2019-03-27T12:48:56.511Z,13.19
2019-03-27T12:49:56.834Z,13.18
2019-03-27T12:50:56.475Z,13.2
2019-03-27T12:51:56.454Z,13.31
2019-03-27T12:52:56.438Z,13.35
2019-03-27T12:53:56.425Z,13.28
2019-03-27T12:54:56.396Z,13.38
2019-03-27T12:55:56.381Z,13.28
2019-03-27T12:56:56.359Z,13.19
2019-03-27T12:57:56.347Z,13.19
2019-03-27T12:58:56.325Z,13.15
2019-03-27T12:59:56.307Z,13.15
2019-03-27T13:00:56.283Z,13.22
2019-03-27T13:01:56.283Z,13.01
2019-03-27T13:02:56.017Z,13
2019-03-27T13:03:56.238Z,13.04
2019-03-27T13:04:56.217Z,12.94
2019-03-27T13:05:56.198Z,12.87
2019-03-27T13:06:56.175Z,12.85
2019-03-27T13:07:56.154Z,12.85
2019-03-27T13:08:56.133Z,12.83
2019-03-27T13:09:56.244Z,12.82
2019-03-27T13:10:56.643Z,12.85
2019-03-27T13:11:56.075Z,12.97
2019-03-27T13:12:56.066Z,13.22
2019-03-27T13:13:56.060Z,13.33
2019-03-27T13:14:56.023Z,13.56